sensor_id;sensor_type;location;lat;lon;timestamp;pressure;altitude;pressure_sealevel;temperature;humidity
6393;BME280;3229;42.674;23.282;2024-02-26T00:00:51;94135.28;;;12.87;69.68
6393;BME280;3229;42.674;23.282;2024-02-26T00:03:42;94156.22;;;13.06;69.59
6393;BME280;3229;42.674;23.282;2024-02-26T00:06:42;94110.47;;;12.71;69.85
6393;BME280;3229;42.674;23.282;2024-02-26T00:09:39;94157.97;;;13.06;69.82
6393;BME280;3229;42.674;23.282;2024-02-26T00:12:32;94158.97;;;13.05;69.71
6393;BME280;3229;42.674;23.282;2024-02-26T00:15:18;94155.59;;;13.04;69.73
6393;BME280;3229;42.674;23.282;2024-02-26T00:18:08;94159.56;;;13.07;69.72
6393;BME280;3229;42.674;23.282;2024-02-26T00:21:04;94129.97;;;12.88;69.68
6393;BME280;3229;42.674;23.282;2024-02-26T00:24:08;94159.44;;;13.09;69.71
6393;BME280;3229;42.674;23.282;2024-02-26T00:26:59;94158.59;;;13.08;69.70
6393;BME280;3229;42.674;23.282;2024-02-26T00:29:48;94144.81;;;13.09;69.70
6393;BME280;3229;42.674;23.282;2024-02-26T00:32:39;94143.06;;;13.10;69.76
6393;BME280;3229;42.674;23.282;2024-02-26T00:35:32;94137.44;;;13.06;69.60
6393;BME280;3229;42.674;23.282;2024-02-26T00:38:24;94142.88;;;13.11;69.80
6393;BME280;3229;42.674;23.282;2024-02-26T00:41:32;94119.00;;;13.02;69.60
6393;BME280;3229;42.674;23.282;2024-02-26T00:44:32;94114.53;;;13.04;69.47
6393;BME280;3229;42.674;23.282;2024-02-26T00:47:24;94126.00;;;13.17;69.70
6393;BME280;3229;42.674;23.282;2024-02-26T00:50:18;94125.06;;;13.18;69.61
6393;BME280;3229;42.674;23.282;2024-02-26T00:53:14;94131.59;;;13.20;69.87
6393;BME280;3229;42.674;23.282;2024-02-26T00:56:24;94124.69;;;13.21;69.62
6393;BME280;3229;42.674;23.282;2024-02-26T00:59:10;94120.38;;;13.21;69.55
6393;BME280;3229;42.674;23.282;2024-02-26T01:01:56;94118.47;;;13.23;69.63
6393;BME280;3229;42.674;23.282;2024-02-26T01:04:42;94110.75;;;13.23;69.35
6393;BME280;3229;42.674;23.282;2024-02-26T01:07:26;94108.66;;;13.27;69.43
6393;BME280;3229;42.674;23.282;2024-02-26T01:10:19;94114.41;;;13.29;69.48
6393;BME280;3229;42.674;23.282;2024-02-26T01:13:03;94055.84;;;12.93;69.49
6393;BME280;3229;42.674;23.282;2024-02-26T01:15:52;94108.66;;;13.27;69.30
6393;BME280;3229;42.674;23.282;2024-02-26T01:18:39;94105.91;;;13.28;69.34
6393;BME280;3229;42.674;23.282;2024-02-26T01:21:32;94112.31;;;13.33;69.15
6393;BME280;3229;42.674;23.282;2024-02-26T01:27:23;94083.84;;;13.11;69.26
6393;BME280;3229;42.674;23.282;2024-02-26T01:30:19;94103.03;;;13.32;69.22
6393;BME280;3229;42.674;23.282;2024-02-26T01:33:12;94099.28;;;13.34;69.14
6393;BME280;3229;42.674;23.282;2024-02-26T01:35:52;94104.44;;;13.34;69.28
6393;BME280;3229;42.674;23.282;2024-02-26T01:41:59;94095.50;;;13.30;69.09
6393;BME280;3229;42.674;23.282;2024-02-26T01:44:44;94096.59;;;13.36;68.99
6393;BME280;3229;42.674;23.282;2024-02-26T01:47:44;94057.19;;;13.12;69.15
6393;BME280;3229;42.674;23.282;2024-02-26T01:53:23;94095.28;;;13.40;68.97
6393;BME280;3229;42.674;23.282;2024-02-26T01:56:08;94088.09;;;13.35;69.00
6393;BME280;3229;42.674;23.282;2024-02-26T01:58:52;94075.91;;;13.29;68.94
6393;BME280;3229;42.674;23.282;2024-02-26T02:01:38;94092.38;;;13.43;68.99
6393;BME280;3229;42.674;23.282;2024-02-26T02:04:46;94090.75;;;13.42;69.01
6393;BME280;3229;42.674;23.282;2024-02-26T02:07:43;94054.09;;;13.25;68.66
6393;BME280;3229;42.674;23.282;2024-02-26T02:10:32;94093.19;;;13.43;69.09
6393;BME280;3229;42.674;23.282;2024-02-26T02:13:28;94096.53;;;13.44;69.12
6393;BME280;3229;42.674;23.282;2024-02-26T02:16:10;94074.13;;;13.29;69.09
6393;BME280;3229;42.674;23.282;2024-02-26T02:19:02;94093.78;;;13.45;69.03
6393;BME280;3229;42.674;23.282;2024-02-26T02:21:56;94084.50;;;13.44;68.84
6393;BME280;3229;42.674;23.282;2024-02-26T02:24:43;94087.84;;;13.45;69.00
6393;BME280;3229;42.674;23.282;2024-02-26T02:27:32;94097.94;;;13.46;69.00
6393;BME280;3229;42.674;23.282;2024-02-26T02:30:32;94038.56;;;13.18;69.09
6393;BME280;3229;42.674;23.282;2024-02-26T02:33:28;94070.56;;;13.39;69.13
6393;BME280;3229;42.674;23.282;2024-02-26T02:36:18;94046.25;;;13.26;69.03
6393;BME280;3229;42.674;23.282;2024-02-26T02:39:23;94066.56;;;13.36;68.85
6393;BME280;3229;42.674;23.282;2024-02-26T02:42:08;94092.19;;;13.44;69.06
6393;BME280;3229;42.674;23.282;2024-02-26T02:44:58;94086.25;;;13.44;68.89
6393;BME280;3229;42.674;23.282;2024-02-26T02:47:53;94090.09;;;13.48;69.12
6393;BME280;3229;42.674;23.282;2024-02-26T02:50:42;94089.13;;;13.49;69.12
6393;BME280;3229;42.674;23.282;2024-02-26T02:53:27;94079.22;;;13.38;69.04
6393;BME280;3229;42.674;23.282;2024-02-26T02:56:43;94110.28;;;13.51;68.98
6393;BME280;3229;42.674;23.282;2024-02-26T03:02:40;94096.63;;;13.50;68.99
6393;BME280;3229;42.674;23.282;2024-02-26T03:05:37;94093.13;;;13.51;68.90
6393;BME280;3229;42.674;23.282;2024-02-26T03:08:31;94098.25;;;13.51;68.97
6393;BME280;3229;42.674;23.282;2024-02-26T03:11:24;94096.50;;;13.52;69.09
6393;BME280;3229;42.674;23.282;2024-02-26T03:14:34;94099.06;;;13.52;69.19
6393;BME280;3229;42.674;23.282;2024-02-26T03:17:32;94104.19;;;13.52;69.04
6393;BME280;3229;42.674;23.282;2024-02-26T03:20:22;94104.81;;;13.54;69.04
6393;BME280;3229;42.674;23.282;2024-02-26T03:23:19;94090.09;;;13.48;69.33
6393;BME280;3229;42.674;23.282;2024-02-26T03:25:59;94094.53;;;13.54;69.23
6393;BME280;3229;42.674;23.282;2024-02-26T03:31:48;94087.81;;;13.53;69.28
6393;BME280;3229;42.674;23.282;2024-02-26T03:34:46;94051.47;;;13.33;69.27
6393;BME280;3229;42.674;23.282;2024-02-26T03:40:48;94077.88;;;13.50;69.43
6393;BME280;3229;42.674;23.282;2024-02-26T03:43:42;94083.97;;;13.49;69.36
6393;BME280;3229;42.674;23.282;2024-02-26T03:46:34;94082.38;;;13.48;69.29
6393;BME280;3229;42.674;23.282;2024-02-26T03:49:43;94076.47;;;13.47;69.29
6393;BME280;3229;42.674;23.282;2024-02-26T03:52:42;94072.25;;;13.46;69.53
6393;BME280;3229;42.674;23.282;2024-02-26T03:55:38;94065.53;;;13.45;69.51
6393;BME280;3229;42.674;23.282;2024-02-26T03:58:26;94077.41;;;13.46;69.35
6393;BME280;3229;42.674;23.282;2024-02-26T04:01:22;94054.41;;;13.30;69.54
6393;BME280;3229;42.674;23.282;2024-02-26T04:10:42;94029.41;;;13.24;69.55
6393;BME280;3229;42.674;23.282;2024-02-26T04:13:24;94062.50;;;13.42;69.53
6393;BME280;3229;42.674;23.282;2024-02-26T04:16:23;94065.88;;;13.42;69.54
6393;BME280;3229;42.674;23.282;2024-02-26T04:22:16;94034.47;;;13.32;69.67
6393;BME280;3229;42.674;23.282;2024-02-26T04:25:14;94041.69;;;13.37;69.76
6393;BME280;3229;42.674;23.282;2024-02-26T04:28:13;94001.69;;;13.11;69.69
6393;BME280;3229;42.674;23.282;2024-02-26T04:31:19;94042.13;;;13.40;69.72
6393;BME280;3229;42.674;23.282;2024-02-26T04:34:12;94055.25;;;13.45;69.72
6393;BME280;3229;42.674;23.282;2024-02-26T04:37:03;94057.03;;;13.45;69.80
6393;BME280;3229;42.674;23.282;2024-02-26T04:42:44;94063.75;;;13.46;69.82
6393;BME280;3229;42.674;23.282;2024-02-26T04:45:58;94043.16;;;13.31;69.91
6393;BME280;3229;42.674;23.282;2024-02-26T04:49:02;94047.28;;;13.40;69.69
6393;BME280;3229;42.674;23.282;2024-02-26T04:51:53;94010.97;;;13.12;69.78
6393;BME280;3229;42.674;23.282;2024-02-26T04:54:42;94069.69;;;13.46;70.00
6393;BME280;3229;42.674;23.282;2024-02-26T04:57:25;94068.44;;;13.42;69.97
6393;BME280;3229;42.674;23.282;2024-02-26T05:03:14;93985.28;;;12.89;69.82
6393;BME280;3229;42.674;23.282;2024-02-26T05:05:42;94078.38;;;13.45;69.80
6393;BME280;3229;42.674;23.282;2024-02-26T05:08:22;94087.69;;;13.46;69.97
6393;BME280;3229;42.674;23.282;2024-02-26T05:11:08;94086.88;;;13.46;70.07
6393;BME280;3229;42.674;23.282;2024-02-26T05:13:49;94097.16;;;13.46;70.00
6393;BME280;3229;42.674;23.282;2024-02-26T05:16:49;94092.00;;;13.46;69.93
6393;BME280;3229;42.674;23.282;2024-02-26T05:19:41;94103.09;;;13.46;69.85
6393;BME280;3229;42.674;23.282;2024-02-26T05:22:28;94094.47;;;13.39;70.11
6393;BME280;3229;42.674;23.282;2024-02-26T05:25:34;94104.72;;;13.47;70.18
6393;BME280;3229;42.674;23.282;2024-02-26T05:28:29;94104.84;;;13.46;70.10
6393;BME280;3229;42.674;23.282;2024-02-26T05:31:19;94114.97;;;13.47;70.23
6393;BME280;3229;42.674;23.282;2024-02-26T05:34:13;94112.41;;;13.47;70.34
6393;BME280;3229;42.674;23.282;2024-02-26T05:37:22;94117.09;;;13.44;70.22
6393;BME280;3229;42.674;23.282;2024-02-26T05:43:24;94103.13;;;13.38;70.20
6393;BME280;3229;42.674;23.282;2024-02-26T05:46:14;94073.88;;;13.08;70.63
6393;BME280;3229;42.674;23.282;2024-02-26T05:49:14;94125.25;;;13.47;70.44
6393;BME280;3229;42.674;23.282;2024-02-26T05:52:12;94120.13;;;13.47;70.38
6393;BME280;3229;42.674;23.282;2024-02-26T05:55:12;94123.78;;;13.53;70.28
6393;BME280;3229;42.674;23.282;2024-02-26T05:58:02;94128.13;;;13.52;70.20
6393;BME280;3229;42.674;23.282;2024-02-26T06:00:50;94131.75;;;13.58;70.37
6393;BME280;3229;42.674;23.282;2024-02-26T06:03:41;94132.56;;;13.59;70.23
6393;BME280;3229;42.674;23.282;2024-02-26T06:09:34;94120.75;;;14.18;93.34
6393;BME280;3229;42.674;23.282;2024-02-26T06:12:14;94107.97;;;14.63;95.05
6393;BME280;3229;42.674;23.282;2024-02-26T06:15:22;94118.34;;;15.28;93.88
6393;BME280;3229;42.674;23.282;2024-02-26T06:21:15;94129.81;;;16.26;88.94
6393;BME280;3229;42.674;23.282;2024-02-26T06:23:58;94140.63;;;16.65;87.28
6393;BME280;3229;42.674;23.282;2024-02-26T06:29:51;94136.00;;;17.16;84.71
6393;BME280;3229;42.674;23.282;2024-02-26T06:32:33;94135.22;;;17.16;82.83
6393;BME280;3229;42.674;23.282;2024-02-26T06:35:22;94136.94;;;17.02;81.15
6393;BME280;3229;42.674;23.282;2024-02-26T06:38:07;94143.00;;;16.88;79.93
6393;BME280;3229;42.674;23.282;2024-02-26T06:40:51;94145.69;;;16.73;78.66
6393;BME280;3229;42.674;23.282;2024-02-26T06:43:32;94102.66;;;16.30;78.20
6393;BME280;3229;42.674;23.282;2024-02-26T06:46:25;94147.63;;;16.43;77.35
6393;BME280;3229;42.674;23.282;2024-02-26T06:49:22;94146.72;;;16.29;76.87
6393;BME280;3229;42.674;23.282;2024-02-26T06:52:12;94145.63;;;16.17;76.38
6393;BME280;3229;42.674;23.282;2024-02-26T06:54:55;94145.75;;;16.09;76.04
6393;BME280;3229;42.674;23.282;2024-02-26T06:57:46;94134.72;;;15.93;75.76
6393;BME280;3229;42.674;23.282;2024-02-26T07:00:42;94142.81;;;15.90;75.35
6393;BME280;3229;42.674;23.282;2024-02-26T07:03:22;94114.31;;;15.62;75.08
6393;BME280;3229;42.674;23.282;2024-02-26T07:06:11;94153.97;;;15.76;74.79
6393;BME280;3229;42.674;23.282;2024-02-26T07:08:54;94150.34;;;15.70;74.64
6393;BME280;3229;42.674;23.282;2024-02-26T07:11:37;94147.31;;;15.67;74.45
6393;BME280;3229;42.674;23.282;2024-02-26T07:14:12;94161.50;;;15.63;74.20
6393;BME280;3229;42.674;23.282;2024-02-26T07:16:50;94164.47;;;15.60;73.72
6393;BME280;3229;42.674;23.282;2024-02-26T07:19:34;94158.88;;;15.56;73.58
6393;BME280;3229;42.674;23.282;2024-02-26T07:22:13;94160.03;;;15.53;73.30
6393;BME280;3229;42.674;23.282;2024-02-26T07:24:52;94166.16;;;15.52;73.16
6393;BME280;3229;42.674;23.282;2024-02-26T07:27:32;94168.75;;;15.52;72.98
6393;BME280;3229;42.674;23.282;2024-02-26T07:30:10;94162.00;;;15.51;72.73
6393;BME280;3229;42.674;23.282;2024-02-26T07:32:52;94164.22;;;15.54;72.53
6393;BME280;3229;42.674;23.282;2024-02-26T07:35:27;94140.25;;;15.39;72.09
6393;BME280;3229;42.674;23.282;2024-02-26T07:38:01;94135.34;;;15.44;72.12
6393;BME280;3229;42.674;23.282;2024-02-26T07:40:36;94164.09;;;15.63;71.74
6393;BME280;3229;42.674;23.282;2024-02-26T07:43:07;94164.75;;;15.65;71.66
6393;BME280;3229;42.674;23.282;2024-02-26T07:45:41;94170.78;;;15.72;71.42
6393;BME280;3229;42.674;23.282;2024-02-26T07:48:22;94160.53;;;15.78;71.11
6393;BME280;3229;42.674;23.282;2024-02-26T07:50:54;94155.47;;;15.85;70.96
6393;BME280;3229;42.674;23.282;2024-02-26T07:53:32;94163.69;;;15.95;70.64
6393;BME280;3229;42.674;23.282;2024-02-26T07:56:11;94147.34;;;15.88;70.33
6393;BME280;3229;42.674;23.282;2024-02-26T07:58:50;94167.03;;;16.11;70.07
6393;BME280;3229;42.674;23.282;2024-02-26T08:01:24;94162.34;;;16.21;69.83
6393;BME280;3229;42.674;23.282;2024-02-26T08:03:53;94161.00;;;16.25;69.54
6393;BME280;3229;42.674;23.282;2024-02-26T08:06:22;94155.88;;;16.31;69.36
6393;BME280;3229;42.674;23.282;2024-02-26T08:08:49;94081.75;;;15.97;69.18
6393;BME280;3229;42.674;23.282;2024-02-26T08:11:16;94155.03;;;16.52;68.87
6393;BME280;3229;42.674;23.282;2024-02-26T08:13:43;94149.16;;;16.59;68.77
6393;BME280;3229;42.674;23.282;2024-02-26T08:16:11;94153.97;;;16.68;68.60
6393;BME280;3229;42.674;23.282;2024-02-26T08:18:38;94149.69;;;16.75;68.23
6393;BME280;3229;42.674;23.282;2024-02-26T08:21:06;94155.69;;;16.83;68.13
6393;BME280;3229;42.674;23.282;2024-02-26T08:23:35;94156.53;;;16.90;67.86
6393;BME280;3229;42.674;23.282;2024-02-26T08:26:04;94154.78;;;16.97;67.71
6393;BME280;3229;42.674;23.282;2024-02-26T08:28:32;94123.91;;;16.82;67.48
6393;BME280;3229;42.674;23.282;2024-02-26T08:31:02;94150.09;;;17.14;67.24
6393;BME280;3229;42.674;23.282;2024-02-26T08:33:31;94153.13;;;17.24;66.94
6393;BME280;3229;42.674;23.282;2024-02-26T08:36:04;94135.66;;;17.26;66.74
6393;BME280;3229;42.674;23.282;2024-02-26T08:38:36;94151.63;;;17.43;66.50
6393;BME280;3229;42.674;23.282;2024-02-26T08:41:07;94119.56;;;17.30;66.21
6393;BME280;3229;42.674;23.282;2024-02-26T08:43:39;94159.47;;;17.63;66.02
6393;BME280;3229;42.674;23.282;2024-02-26T08:46:09;94159.88;;;17.73;65.72
6393;BME280;3229;42.674;23.282;2024-02-26T08:48:39;94153.56;;;17.82;65.40
6393;BME280;3229;42.674;23.282;2024-02-26T08:51:08;94137.88;;;17.84;65.29
6393;BME280;3229;42.674;23.282;2024-02-26T08:53:37;94154.63;;;18.01;65.03
6393;BME280;3229;42.674;23.282;2024-02-26T08:56:08;94123.75;;;17.93;64.59
6393;BME280;3229;42.674;23.282;2024-02-26T08:58:42;94145.25;;;18.13;64.24
6393;BME280;3229;42.674;23.282;2024-02-26T09:01:09;94119.38;;;18.07;64.28
6393;BME280;3229;42.674;23.282;2024-02-26T09:03:37;94145.69;;;18.37;64.03
6393;BME280;3229;42.674;23.282;2024-02-26T09:06:06;94118.41;;;18.27;63.94
6393;BME280;3229;42.674;23.282;2024-02-26T09:08:34;94140.31;;;18.51;63.73
6393;BME280;3229;42.674;23.282;2024-02-26T09:11:04;94139.69;;;18.56;63.61
6393;BME280;3229;42.674;23.282;2024-02-26T09:13:32;94139.53;;;18.58;63.48
6393;BME280;3229;42.674;23.282;2024-02-26T09:15:59;94095.72;;;18.36;63.42
6393;BME280;3229;42.674;23.282;2024-02-26T09:18:27;94129.97;;;18.58;63.39
6393;BME280;3229;42.674;23.282;2024-02-26T09:20:55;94139.91;;;18.68;63.17
6393;BME280;3229;42.674;23.282;2024-02-26T09:23:22;94140.91;;;18.73;63.10
6393;BME280;3229;42.674;23.282;2024-02-26T09:25:50;94140.72;;;18.82;62.75
6393;BME280;3229;42.674;23.282;2024-02-26T09:28:19;94132.16;;;18.88;62.61
6393;BME280;3229;42.674;23.282;2024-02-26T09:30:48;94134.69;;;19.01;62.38
6393;BME280;3229;42.674;23.282;2024-02-26T09:33:17;94133.09;;;19.13;62.08
6393;BME280;3229;42.674;23.282;2024-02-26T09:35:45;94118.72;;;19.17;61.73
6393;BME280;3229;42.674;23.282;2024-02-26T09:38:15;94126.44;;;19.30;61.50
6393;BME280;3229;42.674;23.282;2024-02-26T09:40:43;94133.56;;;19.48;61.33
6393;BME280;3229;42.674;23.282;2024-02-26T09:43:14;94128.50;;;19.60;61.12
6393;BME280;3229;42.674;23.282;2024-02-26T09:45:43;94117.72;;;19.70;60.79
6393;BME280;3229;42.674;23.282;2024-02-26T09:48:12;94114.25;;;19.83;60.42
6393;BME280;3229;42.674;23.282;2024-02-26T09:50:43;94103.44;;;19.86;60.25
6393;BME280;3229;42.674;23.282;2024-02-26T09:53:11;94101.59;;;19.93;59.95
6393;BME280;3229;42.674;23.282;2024-02-26T09:55:40;94118.88;;;20.12;59.66
6393;BME280;3229;42.674;23.282;2024-02-26T09:58:09;94110.63;;;20.15;59.42
6393;BME280;3229;42.674;23.282;2024-02-26T10:00:51;94115.94;;;20.27;59.20
6393;BME280;3229;42.674;23.282;2024-02-26T10:03:23;94081.06;;;20.16;58.94
6393;BME280;3229;42.674;23.282;2024-02-26T10:05:52;94101.91;;;20.35;58.37
6393;BME280;3229;42.674;23.282;2024-02-26T10:08:22;94103.22;;;20.44;58.32
6393;BME280;3229;42.674;23.282;2024-02-26T10:10:51;94106.00;;;20.49;58.29
6393;BME280;3229;42.674;23.282;2024-02-26T10:13:19;94071.31;;;20.37;57.90
6393;BME280;3229;42.674;23.282;2024-02-26T10:15:48;94089.16;;;20.58;57.77
6393;BME280;3229;42.674;23.282;2024-02-26T10:18:15;94098.09;;;20.62;57.44
6393;BME280;3229;42.674;23.282;2024-02-26T10:20:59;94094.44;;;20.70;57.23
6393;BME280;3229;42.674;23.282;2024-02-26T10:23:26;94095.78;;;20.72;57.04
6393;BME280;3229;42.674;23.282;2024-02-26T10:25:54;94084.19;;;20.75;56.89
6393;BME280;3229;42.674;23.282;2024-02-26T10:28:23;94083.78;;;20.78;56.56
6393;BME280;3229;42.674;23.282;2024-02-26T10:30:53;94085.13;;;20.80;56.39
6393;BME280;3229;42.674;23.282;2024-02-26T10:33:22;94053.44;;;20.72;56.21
6393;BME280;3229;42.674;23.282;2024-02-26T10:35:49;94058.06;;;20.88;56.00
6393;BME280;3229;42.674;23.282;2024-02-26T10:38:17;93987.94;;;20.45;55.77
6393;BME280;3229;42.674;23.282;2024-02-26T10:40:46;94046.88;;;20.88;55.41
6393;BME280;3229;42.674;23.282;2024-02-26T10:43:13;94065.16;;;20.99;55.26
6393;BME280;3229;42.674;23.282;2024-02-26T10:45:43;94045.19;;;20.93;55.04
6393;BME280;3229;42.674;23.282;2024-02-26T10:48:13;94036.25;;;20.89;54.55
6393;BME280;3229;42.674;23.282;2024-02-26T10:50:43;94051.69;;;21.02;54.57
6393;BME280;3229;42.674;23.282;2024-02-26T10:53:15;94032.44;;;20.92;54.32
6393;BME280;3229;42.674;23.282;2024-02-26T10:55:46;94047.88;;;21.05;54.20
6393;BME280;3229;42.674;23.282;2024-02-26T10:58:14;94045.28;;;21.05;53.80
6393;BME280;3229;42.674;23.282;2024-02-26T11:00:44;94048.91;;;21.04;53.57
6393;BME280;3229;42.674;23.282;2024-02-26T11:03:14;94019.50;;;20.85;53.42
6393;BME280;3229;42.674;23.282;2024-02-26T11:05:44;94009.69;;;20.87;53.35
6393;BME280;3229;42.674;23.282;2024-02-26T11:08:12;93985.16;;;20.65;52.94
6393;BME280;3229;42.674;23.282;2024-02-26T11:10:40;94042.91;;;21.03;53.11
6393;BME280;3229;42.674;23.282;2024-02-26T11:13:10;94035.41;;;20.95;52.69
6393;BME280;3229;42.674;23.282;2024-02-26T11:15:40;94047.09;;;21.04;52.62
6393;BME280;3229;42.674;23.282;2024-02-26T11:18:08;94037.34;;;21.00;52.60
6393;BME280;3229;42.674;23.282;2024-02-26T11:20:38;94035.91;;;21.04;52.32
6393;BME280;3229;42.674;23.282;2024-02-26T11:23:08;94045.88;;;21.07;52.23
6393;BME280;3229;42.674;23.282;2024-02-26T11:25:40;94031.47;;;21.04;52.21
6393;BME280;3229;42.674;23.282;2024-02-26T11:28:11;93964.31;;;20.53;51.73
6393;BME280;3229;42.674;23.282;2024-02-26T11:30:45;94002.91;;;20.86;52.11
6393;BME280;3229;42.674;23.282;2024-02-26T11:33:15;94039.84;;;21.07;51.64
6393;BME280;3229;42.674;23.282;2024-02-26T11:35:45;94035.91;;;21.04;51.54
6393;BME280;3229;42.674;23.282;2024-02-26T11:38:17;94038.25;;;21.05;51.45
6393;BME280;3229;42.674;23.282;2024-02-26T11:40:46;94019.28;;;21.05;51.32
6393;BME280;3229;42.674;23.282;2024-02-26T11:43:16;94031.47;;;21.04;51.28
6393;BME280;3229;42.674;23.282;2024-02-26T11:45:50;94013.72;;;21.01;51.18
6393;BME280;3229;42.674;23.282;2024-02-26T11:48:23;94025.69;;;21.02;50.89
6393;BME280;3229;42.674;23.282;2024-02-26T11:50:58;93998.28;;;20.88;50.81
6393;BME280;3229;42.674;23.282;2024-02-26T11:53:27;94011.34;;;21.00;50.88
6393;BME280;3229;42.674;23.282;2024-02-26T11:56:25;94011.34;;;21.00;50.69
6393;BME280;3229;42.674;23.282;2024-02-26T11:59:37;94020.16;;;20.99;50.65
6393;BME280;3229;42.674;23.282;2024-02-26T12:02:10;94010.75;;;20.98;50.67
6393;BME280;3229;42.674;23.282;2024-02-26T12:04:40;94010.56;;;20.99;50.55
6393;BME280;3229;42.674;23.282;2024-02-26T12:07:12;93999.53;;;20.86;50.39
6393;BME280;3229;42.674;23.282;2024-02-26T12:09:41;94002.47;;;20.89;50.42
6393;BME280;3229;42.674;23.282;2024-02-26T12:12:13;94024.72;;;21.03;50.13
6393;BME280;3229;42.674;23.282;2024-02-26T12:14:51;94022.91;;;21.04;49.98
6393;BME280;3229;42.674;23.282;2024-02-26T12:17:20;94028.09;;;21.04;49.80
6393;BME280;3229;42.674;23.282;2024-02-26T12:19:48;94006.88;;;20.89;49.72
6393;BME280;3229;42.674;23.282;2024-02-26T12:22:18;94023.09;;;21.02;49.80
6393;BME280;3229;42.674;23.282;2024-02-26T12:24:46;94022.31;;;21.02;49.74
6393;BME280;3229;42.674;23.282;2024-02-26T12:27:14;94036.69;;;21.04;49.60
6393;BME280;3229;42.674;23.282;2024-02-26T12:29:43;94025.06;;;21.07;49.23
6393;BME280;3229;42.674;23.282;2024-02-26T12:32:14;94028.78;;;21.11;49.35
6393;BME280;3229;42.674;23.282;2024-02-26T12:34:44;94029.38;;;21.13;49.26
6393;BME280;3229;42.674;23.282;2024-02-26T12:37:12;94035.97;;;21.16;49.17
6393;BME280;3229;42.674;23.282;2024-02-26T12:39:42;94034.16;;;21.16;48.87
6393;BME280;3229;42.674;23.282;2024-02-26T12:42:11;94040.16;;;21.17;48.85
6393;BME280;3229;42.674;23.282;2024-02-26T12:44:38;94022.38;;;21.14;48.75
6393;BME280;3229;42.674;23.282;2024-02-26T12:47:05;94037.09;;;21.20;48.87
6393;BME280;3229;42.674;23.282;2024-02-26T12:49:31;94028.28;;;21.21;48.68
6393;BME280;3229;42.674;23.282;2024-02-26T12:51:58;94018.63;;;21.10;48.67
6393;BME280;3229;42.674;23.282;2024-02-26T12:54:28;94028.66;;;21.24;48.63
6393;BME280;3229;42.674;23.282;2024-02-26T12:56:56;94017.53;;;21.17;48.50
6393;BME280;3229;42.674;23.282;2024-02-26T12:59:24;94024.81;;;21.27;48.41
6393;BME280;3229;42.674;23.282;2024-02-26T13:01:51;94015.84;;;21.23;48.25
6393;BME280;3229;42.674;23.282;2024-02-26T13:04:18;94009.50;;;21.19;48.17
6393;BME280;3229;42.674;23.282;2024-02-26T13:06:45;94014.13;;;21.17;48.29
6393;BME280;3229;42.674;23.282;2024-02-26T13:09:13;94020.84;;;21.24;48.33
6393;BME280;3229;42.674;23.282;2024-02-26T13:11:40;94024.53;;;21.17;48.24
6393;BME280;3229;42.674;23.282;2024-02-26T13:14:19;94022.50;;;21.19;48.14
6393;BME280;3229;42.674;23.282;2024-02-26T13:16:54;94021.34;;;21.15;48.13
6393;BME280;3229;42.674;23.282;2024-02-26T13:19:21;94031.19;;;21.13;48.17
6393;BME280;3229;42.674;23.282;2024-02-26T13:21:48;94028.47;;;21.08;48.13
6393;BME280;3229;42.674;23.282;2024-02-26T13:24:15;94025.28;;;21.05;48.33
6393;BME280;3229;42.674;23.282;2024-02-26T13:26:43;94014.38;;;20.97;48.42
6393;BME280;3229;42.674;23.282;2024-02-26T13:29:18;94033.94;;;20.99;48.49
6393;BME280;3229;42.674;23.282;2024-02-26T13:31:45;94004.66;;;20.74;48.01
6393;BME280;3229;42.674;23.282;2024-02-26T13:34:23;94046.44;;;20.91;48.10
6393;BME280;3229;42.674;23.282;2024-02-26T13:36:50;94012.31;;;20.69;48.03
6393;BME280;3229;42.674;23.282;2024-02-26T13:39:22;94034.75;;;20.82;48.16
6393;BME280;3229;42.674;23.282;2024-02-26T13:41:49;94041.97;;;20.79;48.23
6393;BME280;3229;42.674;23.282;2024-02-26T13:44:18;94047.81;;;20.75;48.12
6393;BME280;3229;42.674;23.282;2024-02-26T13:46:45;94009.69;;;20.50;48.38
6393;BME280;3229;42.674;23.282;2024-02-26T13:49:12;93976.38;;;20.22;48.19
6393;BME280;3229;42.674;23.282;2024-02-26T13:51:39;94044.94;;;20.65;48.40
6393;BME280;3229;42.674;23.282;2024-02-26T13:54:07;94001.84;;;20.32;48.37
6393;BME280;3229;42.674;23.282;2024-02-26T13:56:35;94048.97;;;20.61;48.31
6393;BME280;3229;42.674;23.282;2024-02-26T13:59:03;94008.44;;;20.35;48.17
6393;BME280;3229;42.674;23.282;2024-02-26T14:01:33;94045.41;;;20.55;48.46
6393;BME280;3229;42.674;23.282;2024-02-26T14:04:02;94047.44;;;20.53;48.36
6393;BME280;3229;42.674;23.282;2024-02-26T14:06:30;94036.13;;;20.41;48.36
6393;BME280;3229;42.674;23.282;2024-02-26T14:08:58;94052.88;;;20.45;48.31
6393;BME280;3229;42.674;23.282;2024-02-26T14:11:26;94047.53;;;20.40;48.13
6393;BME280;3229;42.674;23.282;2024-02-26T14:13:55;94047.16;;;20.36;48.12
6393;BME280;3229;42.674;23.282;2024-02-26T14:16:23;94039.72;;;20.21;48.23
6393;BME280;3229;42.674;23.282;2024-02-26T14:18:52;94057.03;;;20.27;48.16
6393;BME280;3229;42.674;23.282;2024-02-26T14:21:19;94021.28;;;20.04;48.27
6393;BME280;3229;42.674;23.282;2024-02-26T14:23:47;94032.06;;;20.01;48.24
6393;BME280;3229;42.674;23.282;2024-02-26T14:26:17;94050.34;;;20.13;48.40
6393;BME280;3229;42.674;23.282;2024-02-26T14:28:56;94059.16;;;20.12;48.33
6393;BME280;3229;42.674;23.282;2024-02-26T14:31:31;94054.78;;;20.06;48.16
6393;BME280;3229;42.674;23.282;2024-02-26T14:34:04;94066.59;;;20.02;48.40
6393;BME280;3229;42.674;23.282;2024-02-26T14:36:32;94056.09;;;19.90;48.39
6393;BME280;3229;42.674;23.282;2024-02-26T14:38:59;94060.72;;;19.88;48.31
6393;BME280;3229;42.674;23.282;2024-02-26T14:41:26;94069.50;;;19.87;48.57
6393;BME280;3229;42.674;23.282;2024-02-26T14:43:53;94056.63;;;19.74;48.29
6393;BME280;3229;42.674;23.282;2024-02-26T14:46:20;94049.88;;;19.60;48.33
6393;BME280;3229;42.674;23.282;2024-02-26T14:48:47;94073.41;;;19.71;48.56
6393;BME280;3229;42.674;23.282;2024-02-26T14:51:16;94078.41;;;19.66;48.49
6393;BME280;3229;42.674;23.282;2024-02-26T14:53:43;94080.06;;;19.61;48.47
6393;BME280;3229;42.674;23.282;2024-02-26T14:56:10;94023.78;;;19.23;48.53
6393;BME280;3229;42.674;23.282;2024-02-26T14:58:37;93963.00;;;18.74;48.54
6393;BME280;3229;42.674;23.282;2024-02-26T15:01:05;94077.91;;;19.44;48.64